createdAt,value
2019-04-27T00:00:55.385Z,27.70
2019-04-27T00:03:27.625Z,27.80
2019-04-27T00:05:59.819Z,27.90
2019-04-27T00:08:35.634Z,28.10
2019-04-27T00:11:07.454Z,28.10
2019-04-27T00:13:40.575Z,28.30
2019-04-27T00:16:11.157Z,28.40
2019-04-27T00:18:45.541Z,28.50
2019-04-27T00:21:16.023Z,28.60
2019-04-27T00:23:48.366Z,28.80
2019-04-27T00:26:19.420Z,28.90
2019-04-27T00:28:50.355Z,29.00
2019-04-27T00:31:21.232Z,29.20
2019-04-27T00:33:53.454Z,29.20
2019-04-27T00:36:25.934Z,29.30
2019-04-27T00:39:01.000Z,29.40
2019-04-27T00:41:32.009Z,29.50
2019-04-27T00:44:03.423Z,29.60
2019-04-27T00:46:34.346Z,29.70
2019-04-27T00:49:05.935Z,29.80
2019-04-27T00:51:36.692Z,29.90
2019-04-27T00:54:09.012Z,30.00
2019-04-27T00:56:42.856Z,30.10
2019-04-27T00:59:14.680Z,30.20
2019-04-27T01:01:47.415Z,30.30
2019-04-27T01:04:19.543Z,30.40
2019-04-27T01:06:50.475Z,30.40
2019-04-27T01:09:23.582Z,30.60
2019-04-27T01:11:54.210Z,30.70
2019-04-27T01:14:25.683Z,30.80
2019-04-27T01:16:56.653Z,31.00
2019-04-27T01:19:28.941Z,31.10
2019-04-27T01:22:00.343Z,31.10
2019-04-27T01:24:31.577Z,31.10
2019-04-27T01:27:04.435Z,31.20
2019-04-27T01:29:36.931Z,31.30
2019-04-27T01:32:10.662Z,31.30
2019-04-27T01:34:41.743Z,31.40
2019-04-27T01:37:12.689Z,31.40
2019-04-27T01:39:43.433Z,31.50
2019-04-27T01:42:14.623Z,31.60
2019-04-27T01:44:50.833Z,31.70
2019-04-27T01:47:21.027Z,31.90
2019-04-27T01:49:52.080Z,32.10
2019-04-27T01:52:23.154Z,32.30
2019-04-27T01:54:54.084Z,32.50
2019-04-27T01:57:25.112Z,32.60
2019-04-27T01:59:56.297Z,32.70
2019-04-27T02:02:29.294Z,32.80
2019-04-27T02:05:02.225Z,32.90
2019-04-27T02:07:33.665Z,32.90
2019-04-27T02:10:04.764Z,32.90
2019-04-27T02:12:35.826Z,32.90
2019-04-27T02:15:10.628Z,33.00
2019-04-27T02:17:42.484Z,33.00
2019-04-27T02:20:14.321Z,33.00
2019-04-27T02:22:45.670Z,33.10
2019-04-27T02:25:17.084Z,33.10
2019-04-27T02:27:49.576Z,33.10
2019-04-27T02:30:21.965Z,33.20
2019-04-27T02:32:53.946Z,33.20
2019-04-27T02:35:24.908Z,33.20
2019-04-27T02:37:56.508Z,33.20
2019-04-27T02:40:30.540Z,33.20
2019-04-27T02:43:01.910Z,33.30
2019-04-27T02:45:33.606Z,33.30
2019-04-27T02:48:04.497Z,33.40
2019-04-27T02:50:35.990Z,33.40
2019-04-27T02:53:06.770Z,33.50
2019-04-27T02:55:39.506Z,33.70
2019-04-27T02:58:13.013Z,33.80
2019-04-27T03:00:42.408Z,33.90
2019-04-27T03:03:20.126Z,34.00
2019-04-27T03:05:50.483Z,34.20
2019-04-27T03:08:21.614Z,34.30
2019-04-27T03:10:52.373Z,34.40
2019-04-27T03:13:25.249Z,34.40
2019-04-27T03:16:00.248Z,34.50
2019-04-27T03:18:32.789Z,34.60
2019-04-27T03:21:03.544Z,34.60
2019-04-27T03:23:34.459Z,34.70
2019-04-27T03:26:06.541Z,34.70
2019-04-27T03:28:40.229Z,34.80
2019-04-27T03:31:13.448Z,34.90
2019-04-27T03:33:43.449Z,35.10
2019-04-27T03:36:15.069Z,35.30
2019-04-27T03:38:46.057Z,35.40
2019-04-27T03:41:19.222Z,35.50
2019-04-27T03:43:50.331Z,35.50
2019-04-27T03:46:21.703Z,35.60
2019-04-27T03:48:53.316Z,35.70
2019-04-27T03:51:25.807Z,35.80
2019-04-27T03:54:00.196Z,35.90
2019-04-27T03:56:31.593Z,36.10
2019-04-27T03:59:02.455Z,36.10
2019-04-27T04:01:33.737Z,36.20
2019-04-27T04:04:04.459Z,36.20
2019-04-27T04:06:35.662Z,36.30
2019-04-27T04:09:10.256Z,36.30
2019-04-27T04:11:41.813Z,36.40
2019-04-27T04:14:14.296Z,36.50
2019-04-27T04:16:49.700Z,36.60
2019-04-27T04:19:21.715Z,36.70
2019-04-27T04:21:52.472Z,36.70
2019-04-27T04:24:23.428Z,36.80
2019-04-27T04:26:54.418Z,36.90
2019-04-27T04:29:25.817Z,36.90
2019-04-27T04:31:56.886Z,37.00
2019-04-27T04:34:29.845Z,37.10
2019-04-27T04:37:00.632Z,37.10
2019-04-27T04:39:32.349Z,37.20
2019-04-27T04:42:04.925Z,37.30
2019-04-27T04:44:37.181Z,37.40
2019-04-27T04:47:11.111Z,37.50
2019-04-27T04:49:43.633Z,37.60
2019-04-27T04:52:14.972Z,37.60
2019-04-27T04:54:46.140Z,37.60
2019-04-27T04:57:17.054Z,37.70
2019-04-27T04:59:49.501Z,37.90
2019-04-27T05:02:20.612Z,38.00
2019-04-27T05:04:51.803Z,38.20
2019-04-27T05:07:23.472Z,38.20
2019-04-27T05:09:54.422Z,38.30
2019-04-27T05:12:25.201Z,38.40
2019-04-27T05:14:56.450Z,38.40
2019-04-27T05:17:27.402Z,38.50
2019-04-27T05:20:00.013Z,38.60
2019-04-27T05:22:31.047Z,38.70
2019-04-27T05:25:02.643Z,38.80
2019-04-27T05:27:33.912Z,38.80
2019-04-27T05:30:05.860Z,38.80
2019-04-27T05:32:37.354Z,38.80
2019-04-27T05:35:08.850Z,38.90
2019-04-27T05:37:39.937Z,38.90
2019-04-27T05:40:11.177Z,39.00
2019-04-27T05:42:42.201Z,39.00
2019-04-27T05:45:15.433Z,39.10
2019-04-27T05:47:51.774Z,39.20
2019-04-27T05:50:22.025Z,39.30
2019-04-27T05:52:53.030Z,39.50
2019-04-27T05:55:24.873Z,39.60
2019-04-27T05:57:55.785Z,39.60
2019-04-27T06:00:26.969Z,39.60
2019-04-27T06:02:59.079Z,39.70
2019-04-27T06:05:30.033Z,39.70
2019-04-27T06:08:01.118Z,39.70
2019-04-27T06:10:32.077Z,39.60
2019-04-27T06:13:03.106Z,39.60
2019-04-27T06:15:38.891Z,39.50
2019-04-27T06:18:10.078Z,39.40
2019-04-27T06:20:51.099Z,39.30
2019-04-27T06:23:13.116Z,39.30
2019-04-27T06:25:44.028Z,39.30
2019-04-27T06:28:14.872Z,39.40
2019-04-27T06:30:45.935Z,39.50
2019-04-27T06:33:27.994Z,39.60
2019-04-27T06:35:49.650Z,39.60
2019-04-27T06:38:20.978Z,39.70
2019-04-27T06:40:51.826Z,39.70
2019-04-27T06:43:22.870Z,39.70
2019-04-27T06:45:54.327Z,39.80
2019-04-27T06:48:25.092Z,39.70
2019-04-27T06:51:02.696Z,39.60
2019-04-27T06:53:29.163Z,39.60
2019-04-27T06:55:59.915Z,39.60
2019-04-27T06:58:32.496Z,39.70
2019-04-27T07:01:03.924Z,39.70
2019-04-27T07:03:34.649Z,39.70
2019-04-27T07:06:05.539Z,39.70
2019-04-27T07:08:36.404Z,39.80
2019-04-27T07:11:11.013Z,39.80
2019-04-27T07:13:39.382Z,39.80
2019-04-27T07:16:10.408Z,39.70
2019-04-27T07:18:41.305Z,39.70
2019-04-27T07:21:19.040Z,39.60
2019-04-27T07:23:45.593Z,39.60
2019-04-27T07:26:17.190Z,39.60
2019-04-27T07:28:49.285Z,39.80
2019-04-27T07:31:20.567Z,39.70
2019-04-27T07:33:51.740Z,39.80
2019-04-27T07:36:22.725Z,39.70
2019-04-27T07:38:53.501Z,39.80
2019-04-27T07:41:24.494Z,39.80
2019-04-27T07:43:58.538Z,39.80
2019-04-27T07:46:31.602Z,39.70
2019-04-27T07:49:01.376Z,39.70
2019-04-27T07:51:34.311Z,39.70
2019-04-27T07:54:04.447Z,39.70
2019-04-27T07:59:18.870Z,39.60
2019-04-27T08:01:50.001Z,39.70
2019-04-27T08:04:20.932Z,39.60
2019-04-27T08:06:51.810Z,39.60
2019-04-27T08:09:22.767Z,39.50
2019-04-27T08:11:53.433Z,39.50
2019-04-27T08:14:24.428Z,39.50
2019-04-27T08:16:55.410Z,39.60
2019-04-27T08:19:26.283Z,39.60
2019-04-27T08:21:56.969Z,39.80
2019-04-27T08:24:29.376Z,39.70
2019-04-27T08:27:01.390Z,39.80
2019-04-27T08:29:32.992Z,39.80
2019-04-27T08:32:05.382Z,39.90
2019-04-27T08:34:39.510Z,39.90
2019-04-27T08:37:10.156Z,39.90
2019-04-27T08:39:41.200Z,39.90
2019-04-27T08:42:12.281Z,39.80
2019-04-27T08:44:43.114Z,39.80
2019-04-27T08:47:13.959Z,39.80
2019-04-27T08:49:44.727Z,39.80
2019-04-27T08:52:15.706Z,39.70
2019-04-27T08:54:46.703Z,39.70
2019-04-27T08:57:18.782Z,39.60
2019-04-27T08:59:51.099Z,39.50
2019-04-27T09:02:22.045Z,39.30
2019-04-27T09:04:52.914Z,39.30
2019-04-27T09:07:25.260Z,39.20
2019-04-27T09:09:59.533Z,39.00
2019-04-27T09:12:31.138Z,38.90
2019-04-27T09:15:03.117Z,38.80
2019-04-27T09:17:35.359Z,38.70
2019-04-27T09:20:09.849Z,38.60
2019-04-27T09:22:40.824Z,38.50
2019-04-27T09:25:11.862Z,38.40
2019-04-27T09:27:42.690Z,38.30
2019-04-27T09:30:13.997Z,38.20
2019-04-27T09:32:44.899Z,38.20
2019-04-27T09:35:16.165Z,38.10
2019-04-27T09:37:47.150Z,38.20
2019-04-27T09:40:18.125Z,38.20
2019-04-27T09:42:49.215Z,38.20
2019-04-27T09:45:20.470Z,38.20
2019-04-27T09:47:51.363Z,38.20
2019-04-27T09:50:22.268Z,38.20
2019-04-27T09:52:53.090Z,38.20
2019-04-27T09:55:26.145Z,38.20
2019-04-27T09:57:56.893Z,38.20
2019-04-27T10:00:28.687Z,38.10
2019-04-27T10:02:59.555Z,38.10
2019-04-27T10:05:30.528Z,38.10
2019-04-27T10:08:01.684Z,38.10
2019-04-27T10:10:32.469Z,38.10
2019-04-27T10:13:03.487Z,38.00
2019-04-27T10:15:35.560Z,37.90
2019-04-27T10:18:06.292Z,37.80
2019-04-27T10:20:40.562Z,37.80
2019-04-27T10:23:09.656Z,37.70
2019-04-27T10:25:40.472Z,37.60
2019-04-27T10:28:11.420Z,37.60
2019-04-27T10:30:42.410Z,37.50
2019-04-27T10:33:13.364Z,37.50
2019-04-27T10:35:44.362Z,37.40
2019-04-27T10:38:17.207Z,37.40
2019-04-27T10:40:47.631Z,37.40
2019-04-27T10:43:18.646Z,37.30
2019-04-27T10:45:49.831Z,37.30
2019-04-27T10:48:20.728Z,37.20
2019-04-27T10:50:51.806Z,37.20
2019-04-27T10:53:22.604Z,37.10
2019-04-27T10:55:53.472Z,37.10
2019-04-27T10:58:25.421Z,37.00
2019-04-27T11:00:58.419Z,36.90
2019-04-27T11:03:29.926Z,36.90
2019-04-27T11:06:01.063Z,36.80
2019-04-27T11:08:32.058Z,36.70
2019-04-27T11:11:03.039Z,36.60
2019-04-27T11:13:33.983Z,36.60
2019-04-27T11:16:06.185Z,36.50
2019-04-27T11:18:37.160Z,36.50
2019-04-27T11:21:08.090Z,36.40
2019-04-27T11:23:38.934Z,36.30
2019-04-27T11:26:09.910Z,36.20
2019-04-27T11:28:42.601Z,36.10
2019-04-27T11:31:12.960Z,36.10
2019-04-27T11:33:43.977Z,36.00
2019-04-27T11:36:17.108Z,35.90
2019-04-27T11:38:50.315Z,35.80
2019-04-27T11:41:20.176Z,35.60
2019-04-27T11:43:51.105Z,35.40
2019-04-27T11:46:22.010Z,35.30
2019-04-27T11:48:52.872Z,35.20
2019-04-27T11:51:23.698Z,35.10
2019-04-27T11:53:54.601Z,35.00
2019-04-27T11:56:27.303Z,34.90
2019-04-27T11:58:58.001Z,34.70
2019-04-27T12:01:29.164Z,34.50
2019-04-27T12:04:00.114Z,34.40
2019-04-27T12:06:31.187Z,34.20
2019-04-27T12:09:02.151Z,34.10
2019-04-27T12:11:33.004Z,34.00
2019-04-27T12:14:04.180Z,33.90
2019-04-27T12:16:36.522Z,33.80
2019-04-27T12:19:07.228Z,33.70
2019-04-27T12:21:38.086Z,33.50
2019-04-27T12:24:09.216Z,33.50
2019-04-27T12:26:41.413Z,33.40
2019-04-27T12:29:13.652Z,33.40
2019-04-27T12:31:48.760Z,33.30
2019-04-27T12:34:17.632Z,33.20
2019-04-27T12:36:48.663Z,33.20
2019-04-27T12:39:19.434Z,33.10
2019-04-27T12:41:50.407Z,33.00
2019-04-27T12:44:21.153Z,32.90
2019-04-27T12:46:52.137Z,32.90
2019-04-27T12:49:26.193Z,32.90
2019-04-27T12:51:57.073Z,32.80
2019-04-27T12:54:31.588Z,32.80
2019-04-27T12:57:02.913Z,32.70
2019-04-27T12:59:36.533Z,32.70
2019-04-27T13:02:08.562Z,32.70
2019-04-27T13:04:39.992Z,32.70
2019-04-27T13:07:11.143Z,32.70
2019-04-27T13:09:46.143Z,32.60
2019-04-27T13:12:17.404Z,32.60
2019-04-27T13:14:48.486Z,32.60
2019-04-27T13:17:22.341Z,32.60
2019-04-27T13:19:53.891Z,32.50
2019-04-27T13:22:25.039Z,32.60
2019-04-27T13:24:56.625Z,32.50
2019-04-27T13:27:27.893Z,32.60
2019-04-27T13:29:58.678Z,32.50
2019-04-27T13:32:29.555Z,32.50
2019-04-27T13:35:00.387Z,32.50
2019-04-27T13:37:32.369Z,32.50
2019-04-27T13:40:09.096Z,32.50
2019-04-27T13:42:37.567Z,32.50
2019-04-27T13:45:10.416Z,32.50
2019-04-27T13:47:42.957Z,32.40
2019-04-27T13:50:17.007Z,32.40
2019-04-27T13:52:48.096Z,32.40
2019-04-27T13:55:19.007Z,32.50
2019-04-27T13:57:50.721Z,32.40
2019-04-27T14:00:21.932Z,32.40
2019-04-27T14:02:53.552Z,32.40
2019-04-27T14:05:24.531Z,32.40
2019-04-27T14:07:55.604Z,32.40
2019-04-27T14:10:28.606Z,32.40
2019-04-27T14:12:59.108Z,32.30
2019-04-27T14:15:30.138Z,32.30
2019-04-27T14:18:01.172Z,32.30
2019-04-27T14:20:32.029Z,32.30
2019-04-27T14:23:04.600Z,32.20
2019-04-27T14:25:35.472Z,32.20
2019-04-27T14:28:08.416Z,32.20
2019-04-27T14:30:40.041Z,32.20
2019-04-27T14:33:11.083Z,32.10
2019-04-27T14:35:41.850Z,32.10
2019-04-27T14:38:12.742Z,32.10
2019-04-27T14:40:43.781Z,32.10
2019-04-27T14:43:14.728Z,32.00
2019-04-27T14:45:45.561Z,32.10
2019-04-27T14:48:18.315Z,32.00
2019-04-27T14:50:48.677Z,32.00
2019-04-27T14:53:20.203Z,32.00
2019-04-27T14:55:50.893Z,32.00
2019-04-27T14:58:21.810Z,32.00
2019-04-27T15:00:52.751Z,31.90
2019-04-27T15:03:23.672Z,31.90
2019-04-27T15:05:55.239Z,31.80
2019-04-27T15:08:26.127Z,31.80
2019-04-27T15:10:57.215Z,31.80
2019-04-27T15:13:28.936Z,31.80
2019-04-27T15:16:02.567Z,31.80
2019-04-27T15:18:34.711Z,31.70
2019-04-27T15:21:05.753Z,31.70
2019-04-27T15:23:36.582Z,31.70
2019-04-27T15:26:10.514Z,31.60
2019-04-27T15:28:44.695Z,31.60
2019-04-27T15:31:23.648Z,31.60
2019-04-27T15:33:51.464Z,31.50
2019-04-27T15:36:23.881Z,31.40
2019-04-27T15:38:56.081Z,31.40
2019-04-27T15:41:28.901Z,31.40
2019-04-27T15:44:05.766Z,31.30
2019-04-27T15:46:33.881Z,31.30
2019-04-27T15:49:09.654Z,31.20
2019-04-27T15:51:38.223Z,31.20
2019-04-27T15:54:09.387Z,31.20
2019-04-27T15:56:40.461Z,31.10
2019-04-27T15:59:11.383Z,31.10
2019-04-27T16:01:42.775Z,31.10
2019-04-27T16:04:13.951Z,31.10
2019-04-27T16:06:47.613Z,31.10
2019-04-27T16:09:24.209Z,31.10
2019-04-27T16:11:57.858Z,31.00
2019-04-27T16:14:23.121Z,31.00
2019-04-27T16:16:54.018Z,31.00
2019-04-27T16:19:25.085Z,31.00
2019-04-27T16:21:56.026Z,31.00
2019-04-27T16:24:28.854Z,31.00
2019-04-27T16:26:59.252Z,31.00
2019-04-27T16:29:31.611Z,31.00
2019-04-27T16:32:06.837Z,30.90
2019-04-27T16:34:39.572Z,30.90
2019-04-27T16:37:09.526Z,30.90
2019-04-27T16:39:45.518Z,30.90
2019-04-27T16:42:14.264Z,30.80
2019-04-27T16:44:51.413Z,30.80
2019-04-27T16:47:24.325Z,30.70
2019-04-27T16:49:53.099Z,30.70
2019-04-27T16:52:24.024Z,30.70
2019-04-27T16:54:57.327Z,30.70
2019-04-27T16:57:28.176Z,30.60
2019-04-27T17:00:01.019Z,30.60
2019-04-27T17:02:31.475Z,30.60
2019-04-27T17:05:02.380Z,30.60
2019-04-27T17:07:37.762Z,30.60
2019-04-27T17:10:06.502Z,30.60
2019-04-27T17:12:41.194Z,30.60
2019-04-27T17:15:13.692Z,30.60
2019-04-27T17:17:47.168Z,30.50
2019-04-27T17:20:21.120Z,30.50
2019-04-27T17:22:53.246Z,30.50
2019-04-27T17:25:23.871Z,30.50
2019-04-27T17:27:57.869Z,30.50
2019-04-27T17:30:30.947Z,30.40
2019-04-27T17:33:10.525Z,30.40
2019-04-27T17:35:34.682Z,30.40
2019-04-27T17:38:10.665Z,30.40
2019-04-27T17:40:39.907Z,30.40
2019-04-27T17:43:11.357Z,30.30
2019-04-27T17:45:42.331Z,30.30
2019-04-27T17:48:14.398Z,30.30
2019-04-27T17:50:45.589Z,30.30
2019-04-27T17:53:18.684Z,30.30
2019-04-27T17:55:49.447Z,30.20
2019-04-27T17:58:21.060Z,30.20
2019-04-27T18:00:52.505Z,30.20
2019-04-27T18:03:24.834Z,30.10
2019-04-27T18:05:55.528Z,30.10
2019-04-27T18:08:26.623Z,30.10
2019-04-27T18:11:02.940Z,30.00
2019-04-27T18:13:30.126Z,30.00
2019-04-27T18:16:01.088Z,29.90
2019-04-27T18:18:33.280Z,29.90
2019-04-27T18:21:04.845Z,29.90
2019-04-27T18:23:35.432Z,29.90
2019-04-27T18:26:08.008Z,29.90
2019-04-27T18:28:40.224Z,29.80
2019-04-27T18:31:16.067Z,29.80
2019-04-27T18:33:45.587Z,29.80
2019-04-27T18:36:18.126Z,29.80
2019-04-27T18:38:49.671Z,29.80
2019-04-27T18:41:21.297Z,29.80
2019-04-27T18:43:54.817Z,29.80
2019-04-27T18:46:24.812Z,29.80
2019-04-27T18:48:55.429Z,29.80
2019-04-27T18:51:28.809Z,29.80
2019-04-27T18:54:03.243Z,29.80
2019-04-27T18:56:33.435Z,29.80
2019-04-27T18:59:04.338Z,29.80
2019-04-27T19:01:36.015Z,29.80
2019-04-27T19:04:08.658Z,29.70
2019-04-27T19:06:39.853Z,29.70
2019-04-27T19:09:11.673Z,29.70
2019-04-27T19:11:53.285Z,29.70
2019-04-27T19:14:15.301Z,29.70
2019-04-27T19:16:46.129Z,29.70
2019-04-27T19:19:18.801Z,29.60
2019-04-27T19:21:49.345Z,29.70
2019-04-27T19:24:20.345Z,29.60
2019-04-27T19:26:52.440Z,29.60
2019-04-27T19:29:24.938Z,29.60
2019-04-27T19:31:58.631Z,29.60
2019-04-27T19:34:29.625Z,29.60
2019-04-27T19:37:01.073Z,29.60
2019-04-27T19:39:31.882Z,29.60
2019-04-27T19:42:03.869Z,29.60
2019-04-27T19:44:34.844Z,29.60
2019-04-27T19:47:06.039Z,29.60
2019-04-27T19:49:40.254Z,29.60
2019-04-27T19:52:11.197Z,29.60
2019-04-27T19:54:42.220Z,29.60
2019-04-27T19:57:13.141Z,29.60
2019-04-27T19:59:45.224Z,29.60
2019-04-27T20:02:18.478Z,29.50
2019-04-27T20:04:51.447Z,29.50
2019-04-27T20:07:23.449Z,29.60
2019-04-27T20:10:00.854Z,29.60
2019-04-27T20:12:32.071Z,29.50
2019-04-27T20:15:05.108Z,29.50
2019-04-27T20:17:36.628Z,29.50
2019-04-27T20:20:08.778Z,29.50
2019-04-27T20:22:39.868Z,29.50
2019-04-27T20:25:11.408Z,29.50
2019-04-27T20:27:47.027Z,29.50
2019-04-27T20:30:15.359Z,29.50
2019-04-27T20:32:46.295Z,29.50
2019-04-27T20:35:17.370Z,29.50
2019-04-27T20:37:48.259Z,29.50
2019-04-27T20:40:19.378Z,29.40
2019-04-27T20:42:51.590Z,29.40
2019-04-27T20:45:22.551Z,29.40
2019-04-27T20:47:53.677Z,29.40
2019-04-27T20:50:24.739Z,29.40
2019-04-27T20:52:56.479Z,29.40
2019-04-27T20:55:27.801Z,29.40
2019-04-27T20:58:02.346Z,29.40
2019-04-27T21:00:32.198Z,29.30
2019-04-27T21:03:04.452Z,29.40
2019-04-27T21:05:36.747Z,29.40
2019-04-27T21:08:09.089Z,29.30
2019-04-27T21:10:41.283Z,29.30
2019-04-27T21:13:13.225Z,29.30
2019-04-27T21:15:44.130Z,29.30
2019-04-27T21:18:14.913Z,29.30
2019-04-27T21:20:45.998Z,29.20
2019-04-27T21:23:16.954Z,29.20
2019-04-27T21:25:49.727Z,29.20
2019-04-27T21:28:20.231Z,29.20
2019-04-27T21:30:51.126Z,29.20
2019-04-27T21:33:22.033Z,29.20
2019-04-27T21:35:53.042Z,29.20
2019-04-27T21:38:23.848Z,29.10
2019-04-27T21:40:54.859Z,29.10
2019-04-27T21:43:25.921Z,29.10
2019-04-27T21:45:57.061Z,29.10
2019-04-27T21:48:27.906Z,29.00
2019-04-27T21:50:59.030Z,29.00
2019-04-27T21:53:31.240Z,29.00
2019-04-27T21:56:03.285Z,29.00
2019-04-27T21:58:34.357Z,29.00
2019-04-27T22:01:06.857Z,28.90
2019-04-27T22:03:37.648Z,28.90
2019-04-27T22:06:09.054Z,28.90
2019-04-27T22:08:40.977Z,28.90
2019-04-27T22:11:11.996Z,28.80
2019-04-27T22:13:43.193Z,28.80
2019-04-27T22:16:13.935Z,28.80
2019-04-27T22:18:44.605Z,28.80
2019-04-27T22:21:16.045Z,28.70
2019-04-27T22:23:48.190Z,28.70
2019-04-27T22:26:21.194Z,28.70
2019-04-27T22:28:52.188Z,28.70
2019-04-27T22:31:23.103Z,28.70
2019-04-27T22:33:54.621Z,28.60
2019-04-27T22:36:26.126Z,28.60
2019-04-27T22:38:59.048Z,28.60
2019-04-27T22:41:31.438Z,28.60
2019-04-27T22:44:08.399Z,28.60
2019-04-27T22:46:40.966Z,28.60
2019-04-27T22:49:12.372Z,28.60
2019-04-27T22:51:43.248Z,28.60
2019-04-27T22:54:14.173Z,28.60
2019-04-27T22:56:46.441Z,28.60
2019-04-27T22:59:18.914Z,28.50
2019-04-27T23:01:51.328Z,28.50
2019-04-27T23:04:21.959Z,28.60
2019-04-27T23:06:53.155Z,28.60
2019-04-27T23:09:24.163Z,28.50
2019-04-27T23:11:54.958Z,28.50
2019-04-27T23:14:26.571Z,28.50
2019-04-27T23:17:03.183Z,28.50
2019-04-27T23:19:36.346Z,28.50
2019-04-27T23:22:06.617Z,28.50
2019-04-27T23:24:37.279Z,28.50
2019-04-27T23:27:08.196Z,28.60
2019-04-27T23:29:41.848Z,28.60
2019-04-27T23:32:12.682Z,28.60
2019-04-27T23:34:43.596Z,28.60
2019-04-27T23:37:14.607Z,28.60
2019-04-27T23:39:45.661Z,28.70
2019-04-27T23:42:16.704Z,28.70
2019-04-27T23:44:47.855Z,28.80
2019-04-27T23:47:18.973Z,28.80
2019-04-27T23:49:50.898Z,28.90
2019-04-27T23:52:23.325Z,28.90
2019-04-27T23:54:54.261Z,29.00
2019-04-27T23:57:25.271Z,29.00
2019-04-27T23:59:56.328Z,29.10
